createdAt,value
2022-11-10T00:00:43.626Z,2.50
2022-11-10T00:02:16.435Z,2.57
2022-11-10T00:03:50.197Z,2.77
2022-11-10T00:05:24.278Z,2.57
2022-11-10T00:06:57.038Z,2.33
2022-11-10T00:08:29.857Z,2.42
2022-11-10T00:10:01.726Z,2.45
2022-11-10T00:11:34.664Z,2.70
2022-11-10T00:13:07.399Z,2.53
2022-11-10T00:14:57.646Z,2.90
2022-11-10T00:16:48.057Z,2.92
2022-11-10T00:18:20.803Z,2.83
2022-11-10T00:19:53.582Z,2.70
2022-11-10T00:21:27.658Z,2.83
2022-11-10T00:23:00.412Z,2.58
2022-11-10T00:24:33.244Z,2.78
2022-11-10T00:26:12.497Z,2.70
2022-11-10T00:27:45.218Z,2.63
2022-11-10T00:29:18.226Z,2.80
2022-11-10T00:30:51.033Z,2.50
2022-11-10T00:32:23.755Z,3.28
2022-11-10T00:33:56.940Z,2.88
2022-11-10T00:35:29.695Z,2.60
2022-11-10T00:37:03.846Z,2.70
2022-11-10T00:38:36.660Z,2.80
2022-11-10T00:40:10.418Z,2.60
2022-11-10T00:41:43.272Z,2.90
2022-11-10T00:43:16.027Z,2.88
2022-11-10T00:44:48.774Z,2.50
2022-11-10T00:46:21.618Z,2.50
2022-11-10T00:47:53.382Z,2.80
2022-11-10T00:49:26.279Z,2.63
2022-11-10T00:50:59.005Z,2.80
2022-11-10T00:52:33.091Z,2.90
2022-11-10T00:54:05.956Z,2.60
2022-11-10T00:55:39.571Z,2.97
2022-11-10T00:57:12.337Z,3.15
2022-11-10T00:58:45.103Z,2.92
2022-11-10T01:00:18.486Z,2.80
2022-11-10T01:01:51.269Z,2.88
2022-11-10T01:03:24.239Z,2.42
2022-11-10T01:04:56.208Z,3.22
2022-11-10T01:06:29.044Z,3.50
2022-11-10T01:08:03.163Z,3.03
2022-11-10T01:09:35.892Z,2.88
2022-11-10T01:11:10.757Z,2.92
2022-11-10T01:12:43.490Z,2.97
2022-11-10T01:14:16.259Z,2.88
2022-11-10T01:15:48.996Z,2.40
2022-11-10T01:17:21.762Z,2.60
2022-11-10T01:18:56.749Z,3.08
2022-11-10T01:20:29.521Z,2.63
2022-11-10T01:22:02.262Z,2.78
2022-11-10T01:23:36.773Z,3.03
2022-11-10T01:25:10.235Z,3.05
2022-11-10T01:26:43.433Z,2.95
2022-11-10T01:28:16.237Z,2.75
2022-11-10T01:29:48.985Z,2.90
2022-11-10T01:31:23.412Z,2.70
2022-11-10T01:32:56.543Z,3.17
2022-11-10T01:34:29.336Z,2.80
2022-11-10T01:36:02.471Z,3.10
2022-11-10T01:37:35.244Z,3.00
2022-11-10T01:39:09.312Z,2.80
2022-11-10T01:40:42.157Z,2.80
2022-11-10T01:42:15.165Z,2.85
2022-11-10T01:43:47.935Z,2.70
2022-11-10T01:45:54.419Z,3.22
2022-11-10T01:47:27.179Z,2.95
2022-11-10T01:49:02.691Z,3.00
2022-11-10T01:50:38.799Z,3.10
2022-11-10T01:52:14.889Z,3.10
2022-11-10T01:53:52.724Z,2.90
2022-11-10T01:55:27.731Z,2.70
2022-11-10T01:57:05.060Z,2.78
2022-11-10T01:58:43.157Z,3.00
2022-11-10T02:00:17.458Z,2.80
2022-11-10T02:01:54.235Z,2.78
2022-11-10T02:03:33.247Z,3.03
2022-11-10T02:05:07.405Z,2.97
2022-11-10T02:06:43.173Z,2.83
2022-11-10T02:08:16.360Z,3.08
2022-11-10T02:09:49.341Z,2.90
2022-11-10T02:11:24.297Z,2.70
2022-11-10T02:12:56.052Z,3.22
2022-11-10T02:14:29.232Z,3.00
2022-11-10T02:16:02.068Z,2.67
2022-11-10T02:17:34.821Z,2.90
2022-11-10T02:19:19.947Z,2.90
2022-11-10T02:20:54.075Z,2.90
2022-11-10T02:22:26.194Z,3.10
2022-11-10T02:23:58.927Z,3.30
2022-11-10T02:25:33.658Z,2.92
2022-11-10T02:27:06.404Z,3.08
2022-11-10T02:28:38.729Z,2.80
2022-11-10T02:30:12.715Z,2.60
2022-11-10T02:31:45.484Z,2.70
2022-11-10T02:33:18.787Z,2.97
2022-11-10T02:34:51.899Z,3.05
2022-11-10T02:36:25.003Z,2.78
2022-11-10T02:37:57.822Z,2.90
2022-11-10T02:39:30.573Z,3.00
2022-11-10T02:41:02.502Z,2.92
2022-11-10T02:42:35.247Z,2.55
2022-11-10T02:44:08.551Z,3.13
2022-11-10T02:45:44.013Z,2.90
2022-11-10T02:47:16.816Z,2.90
2022-11-10T02:48:49.542Z,2.70
2022-11-10T02:50:21.331Z,2.50
2022-11-10T02:51:55.777Z,2.88
2022-11-10T02:53:27.530Z,2.60
2022-11-10T02:55:00.440Z,2.80
2022-11-10T02:56:33.200Z,3.10
2022-11-10T02:58:05.126Z,2.60
2022-11-10T02:59:37.879Z,3.15
2022-11-10T03:01:10.653Z,2.95
2022-11-10T03:02:43.520Z,3.20
2022-11-10T03:04:16.268Z,2.88
2022-11-10T03:05:48.997Z,2.60
2022-11-10T03:07:23.082Z,3.03
2022-11-10T03:08:56.051Z,3.17
2022-11-10T03:10:29.798Z,3.25
2022-11-10T03:12:02.567Z,3.22
2022-11-10T03:13:51.795Z,3.33
2022-11-10T03:15:28.963Z,3.25
2022-11-10T03:17:01.690Z,2.72
2022-11-10T03:18:34.426Z,2.83
2022-11-10T03:20:08.067Z,3.05
2022-11-10T03:21:40.804Z,3.05
2022-11-10T03:23:15.153Z,3.15
2022-11-10T03:24:47.934Z,3.35
2022-11-10T03:26:21.878Z,3.20
2022-11-10T03:27:54.627Z,2.80
2022-11-10T03:29:27.539Z,3.00
2022-11-10T03:31:00.315Z,3.15
2022-11-10T03:32:33.120Z,2.95
2022-11-10T03:34:05.842Z,2.90
2022-11-10T03:35:38.595Z,3.10
2022-11-10T03:37:11.371Z,3.10
2022-11-10T03:38:45.462Z,2.90
2022-11-10T03:40:18.248Z,2.92
2022-11-10T03:41:51.001Z,3.30
2022-11-10T03:43:23.070Z,3.08
2022-11-10T03:44:56.361Z,3.20
2022-11-10T03:46:29.127Z,2.80
2022-11-10T03:48:01.874Z,2.88
2022-11-10T03:49:33.651Z,3.38
2022-11-10T03:51:06.619Z,3.00
2022-11-10T03:52:40.511Z,2.88
2022-11-10T03:54:14.599Z,2.70
2022-11-10T03:55:47.303Z,3.10
2022-11-10T03:57:20.022Z,3.10
2022-11-10T03:58:52.766Z,3.17
2022-11-10T04:00:25.845Z,3.00
2022-11-10T04:01:57.691Z,2.90
2022-11-10T04:03:30.477Z,2.85
2022-11-10T04:05:20.667Z,2.92
2022-11-10T04:07:10.975Z,3.13
2022-11-10T04:09:02.228Z,3.40
2022-11-10T04:10:37.919Z,3.50
2022-11-10T04:12:28.199Z,3.20
2022-11-10T04:14:18.408Z,3.30
2022-11-10T04:15:51.840Z,2.97
2022-11-10T04:17:24.595Z,3.00
2022-11-10T04:18:57.330Z,3.15
2022-11-10T04:20:30.083Z,3.40
2022-11-10T04:22:02.961Z,3.08
2022-11-10T04:23:35.896Z,3.65
2022-11-10T04:25:09.374Z,3.38
2022-11-10T04:26:42.956Z,3.20
2022-11-10T04:28:15.732Z,3.00
2022-11-10T04:29:48.465Z,3.33
2022-11-10T04:31:22.263Z,3.50
2022-11-10T04:32:55.236Z,3.00
2022-11-10T04:34:27.945Z,3.15
2022-11-10T04:35:59.760Z,2.55
2022-11-10T04:37:32.639Z,3.13
2022-11-10T04:39:06.199Z,2.85
2022-11-10T04:40:37.959Z,2.70
2022-11-10T04:42:12.056Z,3.38
2022-11-10T04:43:44.919Z,3.60
2022-11-10T04:45:17.659Z,3.63
2022-11-10T04:46:50.424Z,3.50
2022-11-10T04:48:22.571Z,3.40
2022-11-10T04:49:55.320Z,3.50
2022-11-10T04:51:28.965Z,3.10
2022-11-10T04:53:01.782Z,3.42
2022-11-10T04:54:34.527Z,3.15
2022-11-10T04:56:07.535Z,3.13
2022-11-10T04:57:43.095Z,3.60
2022-11-10T04:59:15.853Z,3.40
2022-11-10T05:00:48.651Z,3.08
2022-11-10T05:02:21.418Z,3.08
2022-11-10T05:03:54.926Z,3.45
2022-11-10T05:05:26.966Z,2.75
2022-11-10T05:06:59.771Z,2.65
2022-11-10T05:08:32.570Z,2.85
2022-11-10T05:10:06.013Z,2.80
2022-11-10T05:11:38.787Z,3.05
2022-11-10T05:13:13.000Z,2.92
2022-11-10T05:14:46.036Z,3.20
2022-11-10T05:16:18.905Z,3.00
2022-11-10T05:17:53.173Z,2.90
2022-11-10T05:19:25.919Z,3.10
2022-11-10T05:20:58.782Z,3.30
2022-11-10T05:22:31.539Z,3.13
2022-11-10T05:24:03.403Z,3.78
2022-11-10T05:25:38.240Z,2.92
2022-11-10T05:27:10.975Z,3.40
2022-11-10T05:28:46.572Z,4.00
2022-11-10T05:30:18.431Z,3.60
2022-11-10T05:31:51.762Z,3.17
2022-11-10T05:33:25.389Z,3.35
2022-11-10T05:34:58.358Z,3.50
2022-11-10T05:36:31.107Z,3.50
2022-11-10T05:38:03.077Z,3.25
2022-11-10T05:39:35.803Z,3.35
2022-11-10T05:41:08.562Z,3.55
2022-11-10T05:42:43.468Z,3.58
2022-11-10T05:44:17.568Z,3.40
2022-11-10T05:45:50.440Z,3.28
2022-11-10T05:47:23.150Z,4.07
2022-11-10T05:48:55.873Z,3.00
2022-11-10T05:50:28.758Z,2.90
2022-11-10T05:52:01.515Z,3.30
2022-11-10T05:53:34.266Z,3.13
2022-11-10T05:55:06.601Z,3.53
2022-11-10T05:56:39.504Z,3.47
2022-11-10T05:58:12.246Z,3.38
2022-11-10T05:59:46.311Z,3.88
2022-11-10T06:01:19.064Z,3.67
2022-11-10T06:03:01.969Z,3.42
2022-11-10T06:04:34.779Z,3.95
2022-11-10T06:06:08.048Z,3.40
2022-11-10T06:07:40.804Z,4.25
2022-11-10T06:09:13.562Z,3.83
2022-11-10T06:10:46.293Z,3.78
2022-11-10T06:12:19.060Z,3.90
2022-11-10T06:13:51.766Z,3.80
2022-11-10T06:15:26.606Z,3.50
2022-11-10T06:16:59.362Z,3.95
2022-11-10T06:18:32.135Z,4.00
2022-11-10T06:20:05.371Z,3.90
2022-11-10T06:21:38.119Z,3.80
2022-11-10T06:23:12.423Z,3.72
2022-11-10T06:24:45.184Z,4.30
2022-11-10T06:26:18.268Z,3.88
2022-11-10T06:27:51.010Z,4.15
2022-11-10T06:29:26.803Z,4.35
2022-11-10T06:31:01.220Z,4.72
2022-11-10T06:32:35.281Z,4.00
2022-11-10T06:34:08.480Z,4.22
2022-11-10T06:35:41.224Z,4.10
2022-11-10T06:37:13.953Z,4.30
2022-11-10T06:38:46.680Z,4.97
2022-11-10T06:40:19.625Z,4.82
2022-11-10T06:41:52.357Z,4.32
2022-11-10T06:43:25.316Z,4.32
2022-11-10T06:44:58.180Z,4.90
2022-11-10T06:46:32.230Z,4.88
2022-11-10T06:48:07.054Z,5.00
2022-11-10T06:49:39.796Z,5.38
2022-11-10T06:51:12.524Z,4.95
2022-11-10T06:52:45.284Z,5.32
2022-11-10T06:54:18.008Z,5.20
2022-11-10T06:55:51.717Z,5.75
2022-11-10T06:57:24.449Z,5.68
2022-11-10T06:58:57.192Z,5.78
2022-11-10T07:00:30.704Z,5.72
2022-11-10T07:02:04.880Z,5.32
2022-11-10T07:03:44.466Z,5.60
2022-11-10T07:05:26.120Z,6.30
2022-11-10T07:06:58.884Z,6.05
2022-11-10T07:08:31.666Z,5.53
2022-11-10T07:10:07.257Z,6.35
2022-11-10T07:11:40.633Z,6.22
2022-11-10T07:13:13.483Z,6.00
2022-11-10T07:14:46.211Z,6.68
2022-11-10T07:16:24.161Z,6.45
2022-11-10T07:17:58.596Z,6.80
2022-11-10T07:19:32.484Z,6.60
2022-11-10T07:21:05.757Z,6.88
2022-11-10T07:22:38.749Z,6.43
2022-11-10T07:24:11.660Z,7.57
2022-11-10T07:25:44.406Z,6.53
2022-11-10T07:27:17.187Z,6.43
2022-11-10T07:28:49.921Z,6.40
2022-11-10T07:30:22.673Z,5.65
2022-11-10T07:31:55.457Z,6.15
2022-11-10T07:33:29.752Z,6.80
2022-11-10T07:35:02.489Z,6.28
2022-11-10T07:36:35.233Z,5.70
2022-11-10T07:38:09.798Z,6.00
2022-11-10T07:39:42.509Z,6.32
2022-11-10T07:41:15.303Z,6.00
2022-11-10T07:42:48.082Z,5.65
2022-11-10T07:44:20.888Z,5.63
2022-11-10T07:45:54.135Z,5.38
2022-11-10T07:47:26.862Z,5.82
2022-11-10T07:49:00.953Z,6.05
2022-11-10T07:50:34.674Z,6.45
2022-11-10T07:52:07.434Z,6.13
2022-11-10T07:53:41.351Z,6.50
2022-11-10T07:55:14.150Z,6.35
2022-11-10T07:56:46.886Z,6.22
2022-11-10T07:58:19.986Z,5.60
2022-11-10T07:59:54.163Z,5.22
2022-11-10T08:01:30.636Z,5.25
2022-11-10T08:03:04.611Z,4.93
2022-11-10T08:04:38.728Z,5.80
2022-11-10T08:06:11.539Z,5.07
2022-11-10T08:07:44.328Z,5.22
2022-11-10T08:09:17.070Z,5.88
2022-11-10T08:10:49.800Z,5.18
2022-11-10T08:12:22.506Z,5.60
2022-11-10T08:13:55.250Z,5.30
2022-11-10T08:15:29.753Z,5.20
2022-11-10T08:17:02.877Z,5.22
2022-11-10T08:18:35.960Z,5.45
2022-11-10T08:20:11.180Z,4.97
2022-11-10T08:21:43.900Z,5.10
2022-11-10T08:23:17.696Z,4.70
2022-11-10T08:24:50.433Z,4.30
2022-11-10T08:26:23.161Z,5.57
2022-11-10T08:28:00.429Z,5.07
2022-11-10T08:29:33.230Z,4.65
2022-11-10T08:31:06.302Z,5.25
2022-11-10T08:32:39.212Z,5.20
2022-11-10T08:34:11.999Z,4.63
2022-11-10T08:35:48.150Z,4.57
2022-11-10T08:37:20.889Z,4.88
2022-11-10T08:38:53.610Z,4.70
2022-11-10T08:40:28.623Z,4.93
2022-11-10T08:42:01.477Z,4.55
2022-11-10T08:43:34.213Z,4.53
2022-11-10T08:45:07.868Z,5.13
2022-11-10T08:46:44.135Z,4.75
2022-11-10T08:48:20.217Z,4.88
2022-11-10T08:49:52.955Z,4.10
2022-11-10T08:51:27.047Z,4.78
2022-11-10T08:53:02.227Z,5.53
2022-11-10T08:54:34.953Z,5.72
2022-11-10T08:56:08.370Z,5.72
2022-11-10T08:57:41.188Z,5.60
2022-11-10T08:59:13.895Z,5.90
2022-11-10T09:00:46.830Z,5.68
2022-11-10T09:02:19.568Z,5.97
2022-11-10T09:03:52.298Z,5.63
2022-11-10T09:05:25.238Z,5.20
2022-11-10T09:06:59.360Z,5.35
2022-11-10T09:08:33.809Z,5.13
2022-11-10T09:10:08.112Z,4.85
2022-11-10T09:11:41.071Z,4.97
2022-11-10T09:13:16.016Z,4.80
2022-11-10T09:14:48.745Z,5.38
2022-11-10T09:16:21.457Z,4.78
2022-11-10T09:17:54.211Z,4.70
2022-11-10T09:19:26.964Z,4.75
2022-11-10T09:21:00.332Z,5.18
2022-11-10T09:22:37.559Z,4.60
2022-11-10T09:24:10.330Z,5.03
2022-11-10T09:25:43.762Z,5.22
2022-11-10T09:27:16.493Z,5.47
2022-11-10T09:28:51.108Z,5.18
2022-11-10T09:30:25.229Z,5.22
2022-11-10T09:31:57.957Z,4.70
2022-11-10T09:33:30.740Z,4.70
2022-11-10T09:35:03.859Z,5.10
2022-11-10T09:36:37.332Z,4.80
2022-11-10T09:38:11.806Z,4.80
2022-11-10T09:39:44.542Z,4.70
2022-11-10T09:41:17.351Z,4.85
2022-11-10T09:42:50.907Z,4.85
2022-11-10T09:44:26.614Z,4.70
2022-11-10T09:46:02.700Z,4.82
2022-11-10T09:47:56.672Z,4.97
2022-11-10T09:49:36.442Z,4.25
2022-11-10T09:51:13.732Z,4.82
2022-11-10T09:52:47.667Z,4.53
2022-11-10T09:54:35.397Z,4.17
2022-11-10T09:56:13.038Z,4.03
2022-11-10T09:57:49.008Z,3.80
2022-11-10T09:59:27.369Z,3.97
2022-11-10T10:01:13.087Z,4.07
2022-11-10T10:02:49.082Z,3.73
2022-11-10T10:04:51.634Z,3.90
2022-11-10T10:06:24.851Z,3.50
2022-11-10T10:08:03.291Z,3.10
2022-11-10T10:09:46.266Z,3.70
2022-11-10T10:11:29.656Z,3.00
2022-11-10T10:13:20.260Z,3.60
2022-11-10T10:15:17.416Z,3.17
2022-11-10T10:16:58.669Z,3.63
2022-11-10T10:18:38.696Z,3.33
2022-11-10T10:20:19.422Z,3.30
2022-11-10T10:22:08.192Z,3.33
2022-11-10T10:24:08.956Z,3.30
2022-11-10T10:25:44.361Z,2.90
2022-11-10T10:27:23.065Z,3.23
2022-11-10T10:28:57.273Z,3.23
2022-11-10T10:30:30.033Z,3.40
2022-11-10T10:32:03.032Z,3.10
2022-11-10T10:33:35.794Z,2.80
2022-11-10T10:35:14.213Z,3.13
2022-11-10T10:36:47.610Z,3.03
2022-11-10T10:38:26.129Z,3.07
2022-11-10T10:39:58.855Z,2.80
2022-11-10T10:41:34.652Z,2.93
2022-11-10T10:43:07.561Z,3.13
2022-11-10T10:44:40.329Z,3.57
2022-11-10T10:46:15.785Z,3.00
2022-11-10T10:47:50.525Z,3.20
2022-11-10T10:49:30.143Z,3.40
2022-11-10T10:51:03.300Z,3.10
2022-11-10T10:52:36.194Z,3.13
2022-11-10T10:54:24.707Z,3.17
2022-11-10T10:56:01.108Z,3.17
2022-11-10T10:57:35.252Z,3.13
2022-11-10T10:59:20.091Z,3.27
2022-11-10T11:00:55.757Z,3.20
2022-11-10T11:02:30.786Z,3.47
2022-11-10T11:04:26.024Z,2.83
2022-11-10T11:06:04.139Z,3.07
2022-11-10T11:07:37.132Z,3.47
2022-11-10T11:09:17.877Z,3.97
2022-11-10T11:10:50.607Z,3.63
2022-11-10T11:12:28.848Z,3.80
2022-11-10T11:14:21.139Z,3.77
2022-11-10T11:16:01.100Z,3.50
2022-11-10T11:17:34.377Z,3.17
2022-11-10T11:19:09.882Z,3.33
2022-11-10T11:20:48.459Z,3.40
2022-11-10T11:22:46.877Z,3.50
2022-11-10T11:24:30.210Z,2.73
2022-11-10T11:26:10.916Z,3.27
2022-11-10T11:27:59.884Z,3.20
2022-11-10T11:30:00.282Z,3.53
2022-11-10T11:31:49.270Z,3.07
2022-11-10T11:33:48.256Z,3.70
2022-11-10T11:35:31.410Z,3.70
2022-11-10T11:37:12.123Z,3.63
2022-11-10T11:38:56.088Z,3.90
2022-11-10T11:40:37.872Z,4.13
2022-11-10T11:42:19.923Z,3.90
2022-11-10T11:44:16.236Z,4.13
2022-11-10T11:45:56.040Z,3.73
2022-11-10T11:47:39.730Z,3.40
2022-11-10T11:49:34.394Z,3.03
2022-11-10T11:51:15.648Z,3.50
2022-11-10T11:52:58.577Z,3.53
2022-11-10T11:54:55.087Z,4.10
2022-11-10T11:56:31.773Z,4.10
2022-11-10T11:58:23.761Z,4.07
2022-11-10T12:00:06.338Z,4.37
2022-11-10T12:01:51.772Z,4.33
2022-11-10T12:03:34.563Z,3.90
2022-11-10T12:05:25.968Z,4.30
2022-11-10T12:07:12.691Z,4.40
2022-11-10T12:08:58.302Z,5.00
2022-11-10T12:10:43.261Z,4.10
2022-11-10T12:12:57.172Z,4.27
2022-11-10T12:14:46.966Z,3.83
2022-11-10T12:16:25.254Z,4.20
2022-11-10T12:18:08.039Z,4.43
2022-11-10T12:19:46.673Z,4.37
2022-11-10T12:21:25.726Z,4.47
2022-11-10T12:23:06.011Z,4.77
2022-11-10T12:24:56.915Z,4.70
2022-11-10T12:26:44.640Z,4.90
2022-11-10T12:28:22.407Z,3.97
2022-11-10T12:30:00.511Z,3.70
2022-11-10T12:31:38.022Z,4.50
2022-11-10T12:33:22.533Z,4.10
2022-11-10T12:34:58.613Z,3.70
2022-11-10T12:36:32.690Z,3.60
2022-11-10T12:38:08.669Z,3.60
2022-11-10T12:39:54.566Z,3.97
2022-11-10T12:41:32.184Z,3.93
2022-11-10T12:43:10.472Z,3.53
2022-11-10T12:45:00.157Z,3.57
2022-11-10T12:46:32.879Z,3.53
2022-11-10T12:48:07.037Z,3.63
2022-11-10T12:49:50.251Z,3.67
2022-11-10T12:51:31.109Z,3.57
2022-11-10T12:53:12.295Z,4.30
2022-11-10T12:54:47.594Z,3.80
2022-11-10T12:56:25.699Z,3.70
2022-11-10T12:58:01.222Z,3.67
2022-11-10T12:59:35.674Z,3.47
2022-11-10T13:01:15.395Z,3.90
2022-11-10T13:02:48.673Z,3.47
2022-11-10T13:04:21.855Z,3.70
2022-11-10T13:06:01.432Z,3.40
2022-11-10T13:07:34.205Z,3.97
2022-11-10T13:09:06.990Z,3.80
2022-11-10T13:10:50.524Z,4.00
2022-11-10T13:12:24.865Z,3.40
2022-11-10T13:14:00.046Z,4.00
2022-11-10T13:15:56.508Z,3.80
2022-11-10T13:17:54.021Z,3.60
2022-11-10T13:19:49.603Z,3.60
2022-11-10T13:22:04.585Z,4.23
2022-11-10T13:24:12.878Z,3.63
2022-11-10T13:26:06.257Z,4.00
2022-11-10T13:27:52.548Z,3.93
2022-11-10T13:29:36.026Z,4.10
2022-11-10T13:31:40.031Z,4.03
2022-11-10T13:33:36.310Z,3.47
2022-11-10T13:35:54.921Z,3.63
2022-11-10T13:37:50.319Z,3.67
2022-11-10T13:39:26.793Z,3.47
2022-11-10T13:41:14.858Z,3.63
2022-11-10T13:43:25.061Z,3.90
2022-11-10T13:45:28.841Z,3.47
2022-11-10T13:47:19.514Z,3.50
2022-11-10T13:49:15.749Z,3.77
2022-11-10T13:50:55.301Z,3.70
2022-11-10T13:52:35.687Z,3.93
2022-11-10T13:54:29.346Z,3.50
2022-11-10T13:56:13.935Z,3.93
2022-11-10T13:58:00.025Z,4.37
2022-11-10T13:59:44.185Z,4.00
2022-11-10T14:01:28.084Z,4.23
2022-11-10T14:03:02.105Z,4.13
2022-11-10T14:04:41.189Z,3.80
2022-11-10T14:06:18.654Z,4.73
2022-11-10T14:07:51.735Z,4.27
2022-11-10T14:09:31.446Z,3.83
2022-11-10T14:11:07.719Z,4.30
2022-11-10T14:12:46.608Z,3.70
2022-11-10T14:14:25.872Z,4.47
2022-11-10T14:15:59.042Z,4.37
2022-11-10T14:17:35.552Z,4.30
2022-11-10T14:19:25.474Z,3.93
2022-11-10T14:21:00.283Z,4.00
2022-11-10T14:22:38.181Z,3.80
2022-11-10T14:24:17.213Z,3.80
2022-11-10T14:25:56.402Z,3.77
2022-11-10T14:27:31.929Z,3.47
2022-11-10T14:29:31.178Z,3.40
2022-11-10T14:31:04.160Z,3.47
2022-11-10T14:32:36.942Z,3.60
2022-11-10T14:34:15.845Z,3.57
2022-11-10T14:35:51.106Z,3.90
2022-11-10T14:37:25.783Z,3.90
2022-11-10T14:38:58.975Z,4.00
2022-11-10T14:40:32.451Z,3.67
2022-11-10T14:42:06.560Z,3.80
2022-11-10T14:43:40.118Z,3.43
2022-11-10T14:45:19.495Z,3.90
2022-11-10T14:46:52.582Z,4.13
2022-11-10T14:48:27.618Z,3.70
2022-11-10T14:50:08.985Z,3.70
2022-11-10T14:51:41.747Z,3.77
2022-11-10T14:53:21.290Z,3.70
2022-11-10T14:54:54.051Z,3.97
2022-11-10T14:56:29.344Z,3.60
2022-11-10T14:58:06.165Z,3.67
2022-11-10T14:59:39.728Z,4.07
2022-11-10T15:01:26.155Z,3.93
2022-11-10T15:02:59.497Z,3.63
2022-11-10T15:04:33.981Z,3.70
2022-11-10T15:06:10.072Z,4.10
2022-11-10T15:07:44.682Z,3.57
2022-11-10T15:09:24.185Z,4.30
2022-11-10T15:10:57.208Z,4.00
2022-11-10T15:12:29.942Z,4.20
2022-11-10T15:14:02.826Z,3.93
2022-11-10T15:15:35.578Z,4.10
2022-11-10T15:17:11.522Z,3.73
2022-11-10T15:18:45.512Z,4.13
2022-11-10T15:20:30.291Z,4.03
2022-11-10T15:22:07.905Z,4.00
2022-11-10T15:23:41.666Z,4.10
2022-11-10T15:25:17.686Z,4.40
2022-11-10T15:26:50.675Z,4.47
2022-11-10T15:28:28.826Z,3.73
2022-11-10T15:30:04.458Z,4.57
2022-11-10T15:31:37.310Z,4.27
2022-11-10T15:33:12.268Z,4.10
2022-11-10T15:34:46.769Z,4.30
2022-11-10T15:36:32.033Z,4.27
2022-11-10T15:38:06.841Z,4.13
2022-11-10T15:39:39.799Z,3.70
2022-11-10T15:41:16.164Z,4.20
2022-11-10T15:43:10.711Z,4.17
2022-11-10T15:44:47.284Z,4.33
2022-11-10T15:46:22.735Z,4.17
2022-11-10T15:47:56.557Z,4.20
2022-11-10T15:49:32.830Z,4.43
2022-11-10T15:51:05.810Z,3.97
2022-11-10T15:52:39.500Z,4.67
2022-11-10T15:54:12.878Z,4.20
2022-11-10T15:55:46.452Z,4.10
2022-11-10T15:57:20.828Z,4.37
2022-11-10T15:58:59.231Z,4.30
2022-11-10T16:00:34.742Z,4.77
2022-11-10T16:02:20.479Z,4.70
2022-11-10T16:03:53.275Z,4.73
2022-11-10T16:05:27.353Z,4.70
2022-11-10T16:07:00.755Z,4.70
2022-11-10T16:08:34.587Z,5.07
2022-11-10T16:10:07.772Z,4.60
2022-11-10T16:11:44.142Z,4.47
2022-11-10T16:13:19.420Z,4.13
2022-11-10T16:14:53.712Z,4.70
2022-11-10T16:16:29.433Z,4.40
2022-11-10T16:18:02.206Z,4.50
2022-11-10T16:19:34.925Z,3.70
2022-11-10T16:21:13.025Z,4.37
2022-11-10T16:22:45.778Z,4.20
2022-11-10T16:24:18.555Z,4.73
2022-11-10T16:25:52.963Z,4.50
2022-11-10T16:27:25.702Z,4.07
2022-11-10T16:28:58.483Z,4.40
2022-11-10T16:30:31.525Z,4.47
2022-11-10T16:32:05.748Z,3.97
2022-11-10T16:33:39.016Z,4.27
2022-11-10T16:35:13.845Z,4.07
2022-11-10T16:36:48.531Z,4.40
2022-11-10T16:38:23.856Z,4.30
2022-11-10T16:39:56.751Z,4.70
2022-11-10T16:41:29.620Z,4.20
2022-11-10T16:43:02.572Z,4.40
2022-11-10T16:44:38.708Z,4.53
2022-11-10T16:46:20.817Z,4.70
2022-11-10T16:47:54.661Z,4.57
2022-11-10T16:49:31.680Z,5.00
2022-11-10T16:51:05.040Z,4.60
2022-11-10T16:52:40.180Z,4.97
2022-11-10T16:54:13.058Z,4.70
2022-11-10T16:55:46.067Z,4.87
2022-11-10T16:57:20.416Z,4.87
2022-11-10T16:58:53.233Z,6.10
2022-11-10T17:00:26.109Z,6.23
2022-11-10T17:01:58.907Z,6.00
2022-11-10T17:03:33.948Z,5.80
2022-11-10T17:05:07.132Z,5.17
2022-11-10T17:06:39.907Z,5.27
2022-11-10T17:08:22.671Z,5.20
2022-11-10T17:09:57.474Z,5.40
2022-11-10T17:11:30.228Z,5.30
2022-11-10T17:13:03.016Z,5.70
2022-11-10T17:14:35.812Z,7.60
2022-11-10T17:16:15.852Z,8.10
2022-11-10T17:17:51.368Z,8.60
2022-11-10T17:19:26.806Z,8.40
2022-11-10T17:20:59.758Z,7.80
2022-11-10T17:22:34.588Z,8.53
2022-11-10T17:24:11.942Z,7.97
2022-11-10T17:25:45.320Z,6.80
2022-11-10T17:27:19.959Z,6.63
2022-11-10T17:28:53.213Z,6.40
2022-11-10T17:30:26.177Z,6.00
2022-11-10T17:31:58.886Z,5.80
2022-11-10T17:33:31.882Z,6.33
2022-11-10T17:35:04.963Z,5.70
2022-11-10T17:36:38.038Z,6.27
2022-11-10T17:38:14.034Z,6.20
2022-11-10T17:39:48.158Z,5.97
2022-11-10T17:41:21.128Z,5.57
2022-11-10T17:42:53.915Z,5.97
2022-11-10T17:44:26.642Z,6.20
2022-11-10T17:46:00.408Z,6.73
2022-11-10T17:47:33.350Z,7.10
2022-11-10T17:49:06.046Z,7.00
2022-11-10T17:50:40.959Z,6.87
2022-11-10T17:52:18.700Z,6.80
2022-11-10T17:53:53.362Z,7.77
2022-11-10T17:55:33.760Z,8.65
2022-11-10T17:57:09.275Z,7.03
2022-11-10T17:58:42.300Z,6.87
2022-11-10T18:00:17.011Z,8.13
2022-11-10T18:01:49.818Z,7.78
2022-11-10T18:03:23.958Z,8.37
2022-11-10T18:04:56.938Z,8.30
2022-11-10T18:06:29.658Z,7.80
2022-11-10T18:08:02.725Z,7.93
2022-11-10T18:09:35.453Z,7.28
2022-11-10T18:11:11.569Z,7.35
2022-11-10T18:12:44.313Z,11.40
2022-11-10T18:14:17.093Z,9.35
2022-11-10T18:15:50.372Z,9.40
2022-11-10T18:17:23.374Z,9.57
2022-11-10T18:18:56.090Z,10.70
2022-11-10T18:20:28.857Z,10.57
2022-11-10T18:22:01.635Z,10.57
2022-11-10T18:23:34.737Z,10.10
2022-11-10T18:25:09.034Z,11.70
2022-11-10T18:26:43.105Z,9.95
2022-11-10T18:28:16.592Z,9.00
2022-11-10T18:29:49.314Z,10.13
2022-11-10T18:31:22.122Z,8.55
2022-11-10T18:32:54.898Z,10.15
2022-11-10T18:34:27.627Z,10.90
2022-11-10T18:36:00.674Z,9.20
2022-11-10T18:37:36.830Z,8.60
2022-11-10T18:39:11.742Z,8.65
2022-11-10T18:40:44.460Z,7.33
2022-11-10T18:42:17.614Z,8.48
2022-11-10T18:43:50.386Z,8.35
2022-11-10T18:45:23.137Z,8.25
2022-11-10T18:46:55.919Z,8.90
2022-11-10T18:48:31.128Z,9.50
2022-11-10T18:50:08.887Z,9.73
2022-11-10T18:51:41.894Z,9.45
2022-11-10T18:53:14.620Z,9.55
2022-11-10T18:54:47.475Z,12.07
2022-11-10T18:56:20.342Z,10.63
2022-11-10T18:57:54.429Z,8.65
2022-11-10T18:59:27.159Z,8.40
2022-11-10T19:01:04.215Z,8.15
2022-11-10T19:02:37.053Z,8.25
2022-11-10T19:04:10.462Z,8.18
2022-11-10T19:05:43.591Z,8.32
2022-11-10T19:07:16.390Z,8.68
2022-11-10T19:08:49.618Z,8.80
2022-11-10T19:10:22.341Z,8.40
2022-11-10T19:11:55.370Z,8.07
2022-11-10T19:13:29.438Z,8.25
2022-11-10T19:15:02.187Z,7.93
2022-11-10T19:16:34.914Z,8.05
2022-11-10T19:18:07.652Z,8.20
2022-11-10T19:19:40.400Z,7.90
2022-11-10T19:21:17.049Z,8.70
2022-11-10T19:22:49.793Z,8.43
2022-11-10T19:24:28.175Z,7.53
2022-11-10T19:26:02.263Z,7.25
2022-11-10T19:27:34.997Z,7.68
2022-11-10T19:29:09.082Z,7.55
2022-11-10T19:30:41.869Z,6.82
2022-11-10T19:32:14.578Z,6.78
2022-11-10T19:33:48.515Z,6.30
2022-11-10T19:35:21.247Z,6.45
2022-11-10T19:36:54.274Z,6.90
2022-11-10T19:38:28.369Z,7.10
2022-11-10T19:40:01.224Z,6.50
2022-11-10T19:41:34.799Z,6.97
2022-11-10T19:43:07.541Z,6.88
2022-11-10T19:44:41.610Z,6.70
2022-11-10T19:46:15.996Z,7.30
2022-11-10T19:47:48.734Z,6.85
2022-11-10T19:49:22.138Z,8.23
2022-11-10T19:50:55.471Z,7.65
2022-11-10T19:52:28.199Z,8.20
2022-11-10T19:54:04.839Z,8.75
2022-11-10T19:55:37.551Z,8.85
2022-11-10T19:57:10.602Z,8.10
2022-11-10T19:58:44.403Z,8.05
2022-11-10T20:00:18.919Z,7.68
2022-11-10T20:01:51.742Z,7.50
2022-11-10T20:03:25.037Z,8.25
2022-11-10T20:05:17.205Z,8.13
2022-11-10T20:07:09.954Z,8.52
2022-11-10T20:08:41.749Z,8.10
2022-11-10T20:10:14.503Z,7.65
2022-11-10T20:11:47.221Z,7.88
2022-11-10T20:13:20.205Z,6.95
2022-11-10T20:14:53.096Z,7.93
2022-11-10T20:16:27.432Z,7.32
2022-11-10T20:18:00.205Z,7.57
2022-11-10T20:19:40.873Z,7.95
2022-11-10T20:21:16.115Z,7.25
2022-11-10T20:22:48.873Z,8.07
2022-11-10T20:24:21.623Z,7.40
2022-11-10T20:26:03.086Z,7.43
2022-11-10T20:27:35.853Z,7.88
2022-11-10T20:29:08.801Z,8.38
2022-11-10T20:30:44.764Z,7.50
2022-11-10T20:32:18.866Z,7.90
2022-11-10T20:33:52.908Z,7.80
2022-11-10T20:35:25.876Z,7.82
2022-11-10T20:36:58.584Z,8.05
2022-11-10T20:38:31.791Z,9.63
2022-11-10T20:40:07.490Z,8.95
2022-11-10T20:41:46.809Z,10.32
2022-11-10T20:43:19.590Z,21.58
2022-11-10T20:44:52.427Z,16.23
2022-11-10T20:46:52.766Z,11.75
2022-11-10T20:48:19.258Z,13.77
2022-11-10T20:49:52.065Z,11.40
2022-11-10T20:51:24.842Z,10.63
2022-11-10T20:52:57.711Z,10.57
2022-11-10T20:54:30.495Z,10.82
2022-11-10T20:56:03.409Z,10.30
2022-11-10T20:57:36.199Z,10.88
2022-11-10T20:59:08.942Z,10.10
2022-11-10T21:00:43.685Z,10.55
2022-11-10T21:02:16.412Z,11.23
2022-11-10T21:03:50.498Z,15.20
2022-11-10T21:05:23.218Z,19.48
2022-11-10T21:06:55.949Z,26.17
2022-11-10T21:08:29.356Z,21.27
2022-11-10T21:10:02.101Z,21.13
2022-11-10T21:11:52.705Z,20.15
2022-11-10T21:13:26.782Z,14.27
2022-11-10T21:14:58.590Z,15.15
2022-11-10T21:16:31.322Z,16.60